sensor_id;sensor_type;location;lat;lon;timestamp;temperature;humidity
68912;SHT31;55953;51.650;-0.522;2023-04-29T00:00:52;8.53;80.58
68912;SHT31;55953;51.650;-0.522;2023-04-29T00:03:20;8.50;80.59
68912;SHT31;55953;51.650;-0.522;2023-04-29T00:05:48;8.53;80.74
68912;SHT31;55953;51.650;-0.522;2023-04-29T00:08:17;8.56;80.53
68912;SHT31;55953;51.650;-0.522;2023-04-29T00:10:45;8.58;80.50
68912;SHT31;55953;51.650;-0.522;2023-04-29T00:13:12;8.54;80.37
68912;SHT31;55953;51.650;-0.522;2023-04-29T00:15:40;8.49;80.26
68912;SHT31;55953;51.650;-0.522;2023-04-29T00:18:08;8.40;80.35
68912;SHT31;55953;51.650;-0.522;2023-04-29T00:20:37;8.31;80.40
68912;SHT31;55953;51.650;-0.522;2023-04-29T00:23:06;8.27;80.83
68912;SHT31;55953;51.650;-0.522;2023-04-29T00:25:34;8.36;80.88
68912;SHT31;55953;51.650;-0.522;2023-04-29T00:28:02;8.31;80.42
68912;SHT31;55953;51.650;-0.522;2023-04-29T00:30:30;8.18;80.48
68912;SHT31;55953;51.650;-0.522;2023-04-29T00:33:01;8.16;80.66
68912;SHT31;55953;51.650;-0.522;2023-04-29T00:35:30;8.06;80.53
68912;SHT31;55953;51.650;-0.522;2023-04-29T00:37:58;7.98;80.89
68912;SHT31;55953;51.650;-0.522;2023-04-29T00:40:26;7.94;81.04
68912;SHT31;55953;51.650;-0.522;2023-04-29T00:42:55;7.88;81.23
68912;SHT31;55953;51.650;-0.522;2023-04-29T00:45:23;7.89;81.41
68912;SHT31;55953;51.650;-0.522;2023-04-29T00:47:51;7.87;81.21
68912;SHT31;55953;51.650;-0.522;2023-04-29T00:50:20;7.83;81.02
68912;SHT31;55953;51.650;-0.522;2023-04-29T00:52:49;7.78;81.20
68912;SHT31;55953;51.650;-0.522;2023-04-29T00:55:19;7.82;81.21
68912;SHT31;55953;51.650;-0.522;2023-04-29T00:57:47;7.82;81.20
68912;SHT31;55953;51.650;-0.522;2023-04-29T01:00:18;7.74;81.02
68912;SHT31;55953;51.650;-0.522;2023-04-29T01:02:46;7.74;81.05
68912;SHT31;55953;51.650;-0.522;2023-04-29T01:05:16;7.76;80.96
68912;SHT31;55953;51.650;-0.522;2023-04-29T01:07:47;7.65;80.98
68912;SHT31;55953;51.650;-0.522;2023-04-29T01:16:36;7.53;80.99
68912;SHT31;55953;51.650;-0.522;2023-04-29T01:19:26;7.45;81.15
68912;SHT31;55953;51.650;-0.522;2023-04-29T01:22:16;7.46;81.17
68912;SHT31;55953;51.650;-0.522;2023-04-29T01:24:45;7.55;81.33
68912;SHT31;55953;51.650;-0.522;2023-04-29T01:27:16;7.49;80.89
68912;SHT31;55953;51.650;-0.522;2023-04-29T01:35:59;7.34;80.90
68912;SHT31;55953;51.650;-0.522;2023-04-29T01:39:15;7.28;81.17
68912;SHT31;55953;51.650;-0.522;2023-04-29T01:45:17;7.34;81.11
68912;SHT31;55953;51.650;-0.522;2023-04-29T01:47:48;7.29;80.84
68912;SHT31;55953;51.650;-0.522;2023-04-29T01:50:20;7.24;81.09
68912;SHT31;55953;51.650;-0.522;2023-04-29T01:52:48;7.25;81.18
68912;SHT31;55953;51.650;-0.522;2023-04-29T01:55:16;7.18;81.01
68912;SHT31;55953;51.650;-0.522;2023-04-29T01:58:17;7.12;81.19
68912;SHT31;55953;51.650;-0.522;2023-04-29T02:01:01;7.19;81.27
68912;SHT31;55953;51.650;-0.522;2023-04-29T02:03:31;7.17;81.06
68912;SHT31;55953;51.650;-0.522;2023-04-29T02:06:00;7.06;81.07
68912;SHT31;55953;51.650;-0.522;2023-04-29T02:08:28;7.00;81.25
68912;SHT31;55953;51.650;-0.522;2023-04-29T02:10:57;7.01;81.29
68912;SHT31;55953;51.650;-0.522;2023-04-29T02:13:33;6.97;81.14
68912;SHT31;55953;51.650;-0.522;2023-04-29T02:16:11;6.91;81.19
68912;SHT31;55953;51.650;-0.522;2023-04-29T02:19:01;6.78;81.20
68912;SHT31;55953;51.650;-0.522;2023-04-29T02:21:29;6.68;81.41
68912;SHT31;55953;51.650;-0.522;2023-04-29T02:23:59;6.72;81.62
68912;SHT31;55953;51.650;-0.522;2023-04-29T02:26:27;6.78;81.62
68912;SHT31;55953;51.650;-0.522;2023-04-29T02:28:55;6.79;81.55
68912;SHT31;55953;51.650;-0.522;2023-04-29T02:31:24;6.69;81.38
68912;SHT31;55953;51.650;-0.522;2023-04-29T02:33:53;6.61;81.46
68912;SHT31;55953;51.650;-0.522;2023-04-29T02:36:22;6.68;81.60
68912;SHT31;55953;51.650;-0.522;2023-04-29T02:38:51;6.71;81.10
68912;SHT31;55953;51.650;-0.522;2023-04-29T02:41:22;6.65;81.07
68912;SHT31;55953;51.650;-0.522;2023-04-29T02:43:50;6.55;81.05
68912;SHT31;55953;51.650;-0.522;2023-04-29T02:46:18;6.57;81.31
68912;SHT31;55953;51.650;-0.522;2023-04-29T02:48:46;6.60;81.25
68912;SHT31;55953;51.650;-0.522;2023-04-29T02:51:14;6.55;81.24
68912;SHT31;55953;51.650;-0.522;2023-04-29T02:53:41;6.53;81.27
68912;SHT31;55953;51.650;-0.522;2023-04-29T02:56:10;6.46;81.13
68912;SHT31;55953;51.650;-0.522;2023-04-29T02:58:38;6.37;81.44
68912;SHT31;55953;51.650;-0.522;2023-04-29T03:01:06;6.40;81.47
68912;SHT31;55953;51.650;-0.522;2023-04-29T03:03:34;6.45;81.42
68912;SHT31;55953;51.650;-0.522;2023-04-29T03:06:02;6.45;81.46
68912;SHT31;55953;51.650;-0.522;2023-04-29T03:08:30;6.36;81.38
68912;SHT31;55953;51.650;-0.522;2023-04-29T03:10:59;6.33;81.42
68912;SHT31;55953;51.650;-0.522;2023-04-29T03:13:26;6.32;81.45
68912;SHT31;55953;51.650;-0.522;2023-04-29T03:15:54;6.35;81.56
68912;SHT31;55953;51.650;-0.522;2023-04-29T03:18:25;6.42;81.54
68912;SHT31;55953;51.650;-0.522;2023-04-29T03:20:53;6.51;81.36
68912;SHT31;55953;51.650;-0.522;2023-04-29T03:23:20;6.50;80.99
68912;SHT31;55953;51.650;-0.522;2023-04-29T03:25:48;6.37;81.07
68912;SHT31;55953;51.650;-0.522;2023-04-29T03:28:16;6.32;81.31
68912;SHT31;55953;51.650;-0.522;2023-04-29T03:30:44;6.32;81.49
68912;SHT31;55953;51.650;-0.522;2023-04-29T03:33:12;6.27;81.67
68912;SHT31;55953;51.650;-0.522;2023-04-29T03:35:40;6.30;81.73
68912;SHT31;55953;51.650;-0.522;2023-04-29T03:38:17;6.27;81.68
68912;SHT31;55953;51.650;-0.522;2023-04-29T03:40:46;6.28;81.96
68912;SHT31;55953;51.650;-0.522;2023-04-29T03:43:15;6.29;82.09
68912;SHT31;55953;51.650;-0.522;2023-04-29T03:45:44;6.19;82.25
68912;SHT31;55953;51.650;-0.522;2023-04-29T03:48:13;6.09;82.34
68912;SHT31;55953;51.650;-0.522;2023-04-29T03:50:41;6.09;82.57
68912;SHT31;55953;51.650;-0.522;2023-04-29T03:53:09;6.07;82.67
68912;SHT31;55953;51.650;-0.522;2023-04-29T03:55:37;6.09;82.92
68912;SHT31;55953;51.650;-0.522;2023-04-29T03:58:05;6.09;83.16
68912;SHT31;55953;51.650;-0.522;2023-04-29T04:00:33;6.16;83.26
68912;SHT31;55953;51.650;-0.522;2023-04-29T04:03:02;6.26;83.25
68912;SHT31;55953;51.650;-0.522;2023-04-29T04:05:33;6.36;83.17
68912;SHT31;55953;51.650;-0.522;2023-04-29T04:08:06;6.48;83.08
68912;SHT31;55953;51.650;-0.522;2023-04-29T04:10:34;6.50;83.00
68912;SHT31;55953;51.650;-0.522;2023-04-29T04:13:04;6.54;83.02
68912;SHT31;55953;51.650;-0.522;2023-04-29T04:15:32;6.53;83.17
68912;SHT31;55953;51.650;-0.522;2023-04-29T04:18:00;6.63;83.22
68912;SHT31;55953;51.650;-0.522;2023-04-29T04:20:28;6.73;83.25
68912;SHT31;55953;51.650;-0.522;2023-04-29T04:22:56;6.84;83.11
68912;SHT31;55953;51.650;-0.522;2023-04-29T04:25:27;6.91;83.18
68912;SHT31;55953;51.650;-0.522;2023-04-29T04:28:03;6.98;83.12
68912;SHT31;55953;51.650;-0.522;2023-04-29T04:30:45;7.05;83.03
68912;SHT31;55953;51.650;-0.522;2023-04-29T04:33:14;7.11;82.98
68912;SHT31;55953;51.650;-0.522;2023-04-29T04:35:43;7.12;83.07
68912;SHT31;55953;51.650;-0.522;2023-04-29T04:38:11;7.11;83.04
68912;SHT31;55953;51.650;-0.522;2023-04-29T04:40:40;7.14;83.15
68912;SHT31;55953;51.650;-0.522;2023-04-29T04:43:33;7.24;83.28
68912;SHT31;55953;51.650;-0.522;2023-04-29T04:46:11;7.38;83.26
68912;SHT31;55953;51.650;-0.522;2023-04-29T04:48:49;7.47;83.13
68912;SHT31;55953;51.650;-0.522;2023-04-29T04:51:18;7.59;83.09
68912;SHT31;55953;51.650;-0.522;2023-04-29T04:53:47;7.64;83.01
68912;SHT31;55953;51.650;-0.522;2023-04-29T04:56:20;7.65;82.98
68912;SHT31;55953;51.650;-0.522;2023-04-29T04:58:48;7.65;82.83
68912;SHT31;55953;51.650;-0.522;2023-04-29T05:01:16;7.57;82.64
68912;SHT31;55953;51.650;-0.522;2023-04-29T05:03:44;7.57;82.75
68912;SHT31;55953;51.650;-0.522;2023-04-29T05:06:12;7.56;82.66
68912;SHT31;55953;51.650;-0.522;2023-04-29T05:08:41;7.56;82.78
68912;SHT31;55953;51.650;-0.522;2023-04-29T05:11:15;7.69;82.87
68912;SHT31;55953;51.650;-0.522;2023-04-29T05:14:03;7.76;82.67
68912;SHT31;55953;51.650;-0.522;2023-04-29T05:16:31;7.77;82.69
68912;SHT31;55953;51.650;-0.522;2023-04-29T05:18:59;7.85;82.73
68912;SHT31;55953;51.650;-0.522;2023-04-29T05:21:30;7.93;82.67
68912;SHT31;55953;51.650;-0.522;2023-04-29T05:23:58;8.03;82.68
68912;SHT31;55953;51.650;-0.522;2023-04-29T05:26:26;8.19;82.62
68912;SHT31;55953;51.650;-0.522;2023-04-29T05:28:56;8.34;82.39
68912;SHT31;55953;51.650;-0.522;2023-04-29T05:31:24;8.38;82.38
68912;SHT31;55953;51.650;-0.522;2023-04-29T05:33:52;8.52;82.29
68912;SHT31;55953;51.650;-0.522;2023-04-29T05:36:20;8.59;82.04
68912;SHT31;55953;51.650;-0.522;2023-04-29T05:38:48;8.62;82.06
68912;SHT31;55953;51.650;-0.522;2023-04-29T05:41:17;8.64;82.04
68912;SHT31;55953;51.650;-0.522;2023-04-29T05:44:24;8.71;81.82
68912;SHT31;55953;51.650;-0.522;2023-04-29T05:46:51;8.76;81.91
68912;SHT31;55953;51.650;-0.522;2023-04-29T05:49:19;8.77;81.86
68912;SHT31;55953;51.650;-0.522;2023-04-29T05:51:47;8.78;81.92
68912;SHT31;55953;51.650;-0.522;2023-04-29T05:54:15;8.81;81.99
68912;SHT31;55953;51.650;-0.522;2023-04-29T05:56:44;8.87;81.89
68912;SHT31;55953;51.650;-0.522;2023-04-29T05:59:13;9.03;82.01
68912;SHT31;55953;51.650;-0.522;2023-04-29T06:01:44;9.29;81.55
68912;SHT31;55953;51.650;-0.522;2023-04-29T06:04:12;9.45;81.22
68912;SHT31;55953;51.650;-0.522;2023-04-29T06:07:06;9.47;81.12
68912;SHT31;55953;51.650;-0.522;2023-04-29T06:09:57;9.43;81.19
68912;SHT31;55953;51.650;-0.522;2023-04-29T06:12:26;9.46;81.18
68912;SHT31;55953;51.650;-0.522;2023-04-29T06:14:54;9.47;80.91
68912;SHT31;55953;51.650;-0.522;2023-04-29T06:17:22;9.50;81.01
68912;SHT31;55953;51.650;-0.522;2023-04-29T06:19:51;9.56;80.87
68912;SHT31;55953;51.650;-0.522;2023-04-29T06:22:19;9.63;80.54
68912;SHT31;55953;51.650;-0.522;2023-04-29T06:24:50;9.75;80.51
68912;SHT31;55953;51.650;-0.522;2023-04-29T06:27:38;9.89;80.05
68912;SHT31;55953;51.650;-0.522;2023-04-29T06:30:07;10.03;79.86
68912;SHT31;55953;51.650;-0.522;2023-04-29T06:32:37;10.11;79.51
68912;SHT31;55953;51.650;-0.522;2023-04-29T06:35:06;10.14;79.64
68912;SHT31;55953;51.650;-0.522;2023-04-29T06:37:53;10.31;80.00
68912;SHT31;55953;51.650;-0.522;2023-04-29T06:40:46;10.48;79.63
68912;SHT31;55953;51.650;-0.522;2023-04-29T06:43:35;10.67;79.56
68912;SHT31;55953;51.650;-0.522;2023-04-29T06:46:34;10.86;78.80
68912;SHT31;55953;51.650;-0.522;2023-04-29T06:49:22;11.03;78.87
68912;SHT31;55953;51.650;-0.522;2023-04-29T06:51:50;11.19;78.42
68912;SHT31;55953;51.650;-0.522;2023-04-29T06:54:18;11.24;77.89
68912;SHT31;55953;51.650;-0.522;2023-04-29T06:56:48;11.30;77.74
68912;SHT31;55953;51.650;-0.522;2023-04-29T06:59:17;11.37;77.30
68912;SHT31;55953;51.650;-0.522;2023-04-29T07:01:45;11.42;76.98
68912;SHT31;55953;51.650;-0.522;2023-04-29T07:04:18;11.66;77.05
68912;SHT31;55953;51.650;-0.522;2023-04-29T07:06:47;11.96;76.63
68912;SHT31;55953;51.650;-0.522;2023-04-29T07:09:15;12.18;76.08
68912;SHT31;55953;51.650;-0.522;2023-04-29T07:11:43;12.28;75.43
68912;SHT31;55953;51.650;-0.522;2023-04-29T07:14:11;12.43;75.49
68912;SHT31;55953;51.650;-0.522;2023-04-29T07:16:39;12.55;75.48
68912;SHT31;55953;51.650;-0.522;2023-04-29T07:19:09;12.66;74.93
68912;SHT31;55953;51.650;-0.522;2023-04-29T07:21:37;12.67;74.50
68912;SHT31;55953;51.650;-0.522;2023-04-29T07:24:05;12.67;74.70
68912;SHT31;55953;51.650;-0.522;2023-04-29T07:26:33;12.72;74.26
68912;SHT31;55953;51.650;-0.522;2023-04-29T07:29:01;12.72;73.96
68912;SHT31;55953;51.650;-0.522;2023-04-29T07:31:29;12.73;74.39
68912;SHT31;55953;51.650;-0.522;2023-04-29T07:33:57;12.87;74.04
68912;SHT31;55953;51.650;-0.522;2023-04-29T07:36:25;12.95;73.11
68912;SHT31;55953;51.650;-0.522;2023-04-29T07:38:55;12.98;72.82
68912;SHT31;55953;51.650;-0.522;2023-04-29T07:41:23;12.98;73.11
68912;SHT31;55953;51.650;-0.522;2023-04-29T07:43:51;13.01;72.71
68912;SHT31;55953;51.650;-0.522;2023-04-29T07:46:19;13.10;72.76
68912;SHT31;55953;51.650;-0.522;2023-04-29T07:48:47;13.19;72.19
68912;SHT31;55953;51.650;-0.522;2023-04-29T07:51:15;13.20;71.64
68912;SHT31;55953;51.650;-0.522;2023-04-29T07:53:43;13.26;72.45
68912;SHT31;55953;51.650;-0.522;2023-04-29T07:56:11;13.38;72.45
68912;SHT31;55953;51.650;-0.522;2023-04-29T07:58:42;13.60;72.76
68912;SHT31;55953;51.650;-0.522;2023-04-29T08:01:10;13.81;71.53
68912;SHT31;55953;51.650;-0.522;2023-04-29T08:03:39;13.95;70.96
68912;SHT31;55953;51.650;-0.522;2023-04-29T08:06:09;13.98;70.81
68912;SHT31;55953;51.650;-0.522;2023-04-29T08:08:37;14.00;69.99
68912;SHT31;55953;51.650;-0.522;2023-04-29T08:11:05;14.08;70.69
68912;SHT31;55953;51.650;-0.522;2023-04-29T08:13:36;14.35;69.78
68912;SHT31;55953;51.650;-0.522;2023-04-29T08:16:04;14.75;69.13
68912;SHT31;55953;51.650;-0.522;2023-04-29T08:18:32;14.99;68.19
68912;SHT31;55953;51.650;-0.522;2023-04-29T08:21:01;15.15;67.34
68912;SHT31;55953;51.650;-0.522;2023-04-29T08:23:30;15.33;67.14
68912;SHT31;55953;51.650;-0.522;2023-04-29T08:25:58;15.47;65.68
68912;SHT31;55953;51.650;-0.522;2023-04-29T08:28:26;15.61;65.90
68912;SHT31;55953;51.650;-0.522;2023-04-29T08:30:54;15.66;65.57
68912;SHT31;55953;51.650;-0.522;2023-04-29T08:33:23;15.67;63.85
68912;SHT31;55953;51.650;-0.522;2023-04-29T08:35:56;15.69;65.39
68912;SHT31;55953;51.650;-0.522;2023-04-29T08:38:26;15.94;64.79
68912;SHT31;55953;51.650;-0.522;2023-04-29T08:40:54;16.03;64.10
68912;SHT31;55953;51.650;-0.522;2023-04-29T08:43:23;16.11;64.89
68912;SHT31;55953;51.650;-0.522;2023-04-29T08:45:52;16.10;63.54
68912;SHT31;55953;51.650;-0.522;2023-04-29T08:48:21;16.04;63.40
68912;SHT31;55953;51.650;-0.522;2023-04-29T08:50:49;15.90;63.08
68912;SHT31;55953;51.650;-0.522;2023-04-29T08:53:17;15.83;63.89
68912;SHT31;55953;51.650;-0.522;2023-04-29T08:55:46;15.85;63.96
68912;SHT31;55953;51.650;-0.522;2023-04-29T08:58:15;16.01;62.95
68912;SHT31;55953;51.650;-0.522;2023-04-29T09:00:43;15.91;61.93
68912;SHT31;55953;51.650;-0.522;2023-04-29T09:06:33;15.91;63.27
68912;SHT31;55953;51.650;-0.522;2023-04-29T09:09:01;15.95;62.46
68912;SHT31;55953;51.650;-0.522;2023-04-29T09:11:30;15.93;62.15
68912;SHT31;55953;51.650;-0.522;2023-04-29T09:14:00;15.89;62.16
68912;SHT31;55953;51.650;-0.522;2023-04-29T09:16:29;15.96;62.73
68912;SHT31;55953;51.650;-0.522;2023-04-29T09:18:57;16.01;62.13
68912;SHT31;55953;51.650;-0.522;2023-04-29T09:21:25;16.08;62.49
68912;SHT31;55953;51.650;-0.522;2023-04-29T09:23:56;16.16;61.59
68912;SHT31;55953;51.650;-0.522;2023-04-29T09:26:27;16.03;59.56
68912;SHT31;55953;51.650;-0.522;2023-04-29T09:29:07;15.82;60.27
68912;SHT31;55953;51.650;-0.522;2023-04-29T09:31:43;15.72;60.81
68912;SHT31;55953;51.650;-0.522;2023-04-29T09:34:12;15.76;61.69
68912;SHT31;55953;51.650;-0.522;2023-04-29T09:36:48;15.86;61.64
68912;SHT31;55953;51.650;-0.522;2023-04-29T09:39:21;15.95;61.73
68912;SHT31;55953;51.650;-0.522;2023-04-29T09:44:19;15.98;60.73
68912;SHT31;55953;51.650;-0.522;2023-04-29T09:47:01;16.00;61.34
68912;SHT31;55953;51.650;-0.522;2023-04-29T09:52:11;16.25;60.54
68912;SHT31;55953;51.650;-0.522;2023-04-29T09:54:43;16.33;59.90
68912;SHT31;55953;51.650;-0.522;2023-04-29T09:57:11;16.38;60.37
68912;SHT31;55953;51.650;-0.522;2023-04-29T09:59:42;16.44;59.03
68912;SHT31;55953;51.650;-0.522;2023-04-29T10:04:52;16.31;59.17
68912;SHT31;55953;51.650;-0.522;2023-04-29T10:07:24;16.45;59.16
68912;SHT31;55953;51.650;-0.522;2023-04-29T10:09:54;16.55;59.10
68912;SHT31;55953;51.650;-0.522;2023-04-29T10:12:22;16.72;58.84
68912;SHT31;55953;51.650;-0.522;2023-04-29T10:15:02;16.78;57.51
68912;SHT31;55953;51.650;-0.522;2023-04-29T10:18:07;16.84;58.60
68912;SHT31;55953;51.650;-0.522;2023-04-29T10:20:47;16.78;55.82
68912;SHT31;55953;51.650;-0.522;2023-04-29T10:23:15;16.79;57.69
68912;SHT31;55953;51.650;-0.522;2023-04-29T10:25:44;16.90;57.17
68912;SHT31;55953;51.650;-0.522;2023-04-29T10:28:15;16.94;56.94
68912;SHT31;55953;51.650;-0.522;2023-04-29T10:30:44;16.98;57.53
68912;SHT31;55953;51.650;-0.522;2023-04-29T10:33:17;16.98;56.47
68912;SHT31;55953;51.650;-0.522;2023-04-29T10:35:45;17.00;56.75
68912;SHT31;55953;51.650;-0.522;2023-04-29T10:38:23;17.00;56.23
68912;SHT31;55953;51.650;-0.522;2023-04-29T10:41:03;17.07;55.69
68912;SHT31;55953;51.650;-0.522;2023-04-29T10:43:57;17.20;56.23
68912;SHT31;55953;51.650;-0.522;2023-04-29T10:46:29;17.42;55.47
68912;SHT31;55953;51.650;-0.522;2023-04-29T10:49:00;17.51;54.90
68912;SHT31;55953;51.650;-0.522;2023-04-29T10:51:43;17.62;55.04
68912;SHT31;55953;51.650;-0.522;2023-04-29T10:54:13;17.75;55.43
68912;SHT31;55953;51.650;-0.522;2023-04-29T10:56:50;17.82;55.14
68912;SHT31;55953;51.650;-0.522;2023-04-29T11:01:54;17.89;54.25
68912;SHT31;55953;51.650;-0.522;2023-04-29T11:04:22;17.87;54.22
68912;SHT31;55953;51.650;-0.522;2023-04-29T11:06:51;18.01;54.57
68912;SHT31;55953;51.650;-0.522;2023-04-29T11:09:24;18.01;52.68
68912;SHT31;55953;51.650;-0.522;2023-04-29T11:14:23;17.92;54.59
68912;SHT31;55953;51.650;-0.522;2023-04-29T11:17:18;17.98;51.66
68912;SHT31;55953;51.650;-0.522;2023-04-29T11:19:50;17.94;53.71
68912;SHT31;55953;51.650;-0.522;2023-04-29T11:22:26;18.06;53.75
68912;SHT31;55953;51.650;-0.522;2023-04-29T11:25:01;18.16;53.50
68912;SHT31;55953;51.650;-0.522;2023-04-29T11:27:34;18.25;53.43
68912;SHT31;55953;51.650;-0.522;2023-04-29T11:30:09;18.29;53.58
68912;SHT31;55953;51.650;-0.522;2023-04-29T11:32:38;18.33;53.24
68912;SHT31;55953;51.650;-0.522;2023-04-29T11:35:13;18.29;53.12
68912;SHT31;55953;51.650;-0.522;2023-04-29T11:37:44;18.27;53.55
68912;SHT31;55953;51.650;-0.522;2023-04-29T11:40:14;18.36;53.46
68912;SHT31;55953;51.650;-0.522;2023-04-29T11:42:47;18.42;54.04
68912;SHT31;55953;51.650;-0.522;2023-04-29T11:45:16;18.50;53.50
68912;SHT31;55953;51.650;-0.522;2023-04-29T11:47:45;18.63;53.80
68912;SHT31;55953;51.650;-0.522;2023-04-29T11:50:15;18.67;52.96
68912;SHT31;55953;51.650;-0.522;2023-04-29T11:52:47;18.77;52.86
68912;SHT31;55953;51.650;-0.522;2023-04-29T11:55:16;18.71;53.32
68912;SHT31;55953;51.650;-0.522;2023-04-29T11:57:47;18.83;53.69
68912;SHT31;55953;51.650;-0.522;2023-04-29T12:00:17;18.93;52.65
68912;SHT31;55953;51.650;-0.522;2023-04-29T12:02:46;18.91;52.12
68912;SHT31;55953;51.650;-0.522;2023-04-29T12:05:15;18.77;51.35
68912;SHT31;55953;51.650;-0.522;2023-04-29T12:07:44;18.57;50.69
68912;SHT31;55953;51.650;-0.522;2023-04-29T12:10:12;18.55;53.57
68912;SHT31;55953;51.650;-0.522;2023-04-29T12:12:40;18.77;53.45
68912;SHT31;55953;51.650;-0.522;2023-04-29T12:15:10;18.92;52.64
68912;SHT31;55953;51.650;-0.522;2023-04-29T12:17:39;18.91;51.60
68912;SHT31;55953;51.650;-0.522;2023-04-29T12:20:09;19.03;54.02
68912;SHT31;55953;51.650;-0.522;2023-04-29T12:22:40;19.34;54.11
68912;SHT31;55953;51.650;-0.522;2023-04-29T12:25:10;19.56;53.55
68912;SHT31;55953;51.650;-0.522;2023-04-29T12:27:39;19.80;52.48
68912;SHT31;55953;51.650;-0.522;2023-04-29T12:30:10;19.87;52.01
68912;SHT31;55953;51.650;-0.522;2023-04-29T12:32:39;19.92;52.07
68912;SHT31;55953;51.650;-0.522;2023-04-29T12:35:14;20.02;51.86
68912;SHT31;55953;51.650;-0.522;2023-04-29T12:37:47;20.10;51.30
68912;SHT31;55953;51.650;-0.522;2023-04-29T12:40:17;20.15;51.05
68912;SHT31;55953;51.650;-0.522;2023-04-29T12:42:47;20.36;51.34
68912;SHT31;55953;51.650;-0.522;2023-04-29T12:45:31;20.54;51.54
68912;SHT31;55953;51.650;-0.522;2023-04-29T12:48:00;20.62;50.50
68912;SHT31;55953;51.650;-0.522;2023-04-29T12:50:36;20.34;49.56
68912;SHT31;55953;51.650;-0.522;2023-04-29T12:53:06;20.24;50.47
68912;SHT31;55953;51.650;-0.522;2023-04-29T12:55:36;20.37;49.73
68912;SHT31;55953;51.650;-0.522;2023-04-29T12:58:05;20.62;49.40
68912;SHT31;55953;51.650;-0.522;2023-04-29T13:00:33;20.78;48.69
68912;SHT31;55953;51.650;-0.522;2023-04-29T13:03:03;20.79;47.21
68912;SHT31;55953;51.650;-0.522;2023-04-29T13:05:32;21.05;49.32
68912;SHT31;55953;51.650;-0.522;2023-04-29T13:08:00;21.36;47.58
68912;SHT31;55953;51.650;-0.522;2023-04-29T13:10:28;21.42;48.02
68912;SHT31;55953;51.650;-0.522;2023-04-29T13:12:56;21.60;47.51
68912;SHT31;55953;51.650;-0.522;2023-04-29T13:15:24;21.80;46.33
68912;SHT31;55953;51.650;-0.522;2023-04-29T13:17:53;21.85;45.55
68912;SHT31;55953;51.650;-0.522;2023-04-29T13:20:22;21.88;45.01
68912;SHT31;55953;51.650;-0.522;2023-04-29T13:22:49;21.98;46.04
68912;SHT31;55953;51.650;-0.522;2023-04-29T13:25:17;22.30;45.37
68912;SHT31;55953;51.650;-0.522;2023-04-29T13:27:45;22.53;44.19
68912;SHT31;55953;51.650;-0.522;2023-04-29T13:30:13;22.59;43.92
68912;SHT31;55953;51.650;-0.522;2023-04-29T13:32:41;22.71;44.36
68912;SHT31;55953;51.650;-0.522;2023-04-29T13:35:21;22.85;44.69
68912;SHT31;55953;51.650;-0.522;2023-04-29T13:37:49;23.04;44.22
68912;SHT31;55953;51.650;-0.522;2023-04-29T13:40:16;23.23;43.25
68912;SHT31;55953;51.650;-0.522;2023-04-29T13:42:48;23.31;42.47
68912;SHT31;55953;51.650;-0.522;2023-04-29T13:45:28;23.27;42.43
68912;SHT31;55953;51.650;-0.522;2023-04-29T13:47:56;23.15;41.50
68912;SHT31;55953;51.650;-0.522;2023-04-29T13:50:42;23.11;42.78
68912;SHT31;55953;51.650;-0.522;2023-04-29T13:53:14;23.24;40.82
68912;SHT31;55953;51.650;-0.522;2023-04-29T13:55:46;23.34;41.36
68912;SHT31;55953;51.650;-0.522;2023-04-29T13:58:17;23.52;40.56
68912;SHT31;55953;51.650;-0.522;2023-04-29T14:00:47;23.52;40.77
68912;SHT31;55953;51.650;-0.522;2023-04-29T14:03:18;23.36;40.06
68912;SHT31;55953;51.650;-0.522;2023-04-29T14:05:47;23.33;40.17
68912;SHT31;55953;51.650;-0.522;2023-04-29T14:08:14;23.46;41.18
68912;SHT31;55953;51.650;-0.522;2023-04-29T14:10:42;23.47;40.89
68912;SHT31;55953;51.650;-0.522;2023-04-29T14:13:10;23.33;41.50
68912;SHT31;55953;51.650;-0.522;2023-04-29T14:15:38;23.14;41.40
68912;SHT31;55953;51.650;-0.522;2023-04-29T14:18:06;22.93;41.60
68912;SHT31;55953;51.650;-0.522;2023-04-29T14:20:35;22.65;41.89
68912;SHT31;55953;51.650;-0.522;2023-04-29T14:23:04;22.42;42.13
68912;SHT31;55953;51.650;-0.522;2023-04-29T14:25:32;22.22;42.63
68912;SHT31;55953;51.650;-0.522;2023-04-29T14:28:00;22.14;43.02
68912;SHT31;55953;51.650;-0.522;2023-04-29T14:30:28;21.94;42.50
68912;SHT31;55953;51.650;-0.522;2023-04-29T14:32:56;21.83;43.37
68912;SHT31;55953;51.650;-0.522;2023-04-29T14:35:24;21.76;43.67
68912;SHT31;55953;51.650;-0.522;2023-04-29T14:37:52;21.66;43.70
68912;SHT31;55953;51.650;-0.522;2023-04-29T14:40:20;21.60;44.47
68912;SHT31;55953;51.650;-0.522;2023-04-29T14:42:48;21.60;44.32
68912;SHT31;55953;51.650;-0.522;2023-04-29T14:45:16;21.62;44.02
68912;SHT31;55953;51.650;-0.522;2023-04-29T14:47:43;21.62;43.91
68912;SHT31;55953;51.650;-0.522;2023-04-29T14:50:12;21.58;43.97
68912;SHT31;55953;51.650;-0.522;2023-04-29T14:52:40;21.63;44.30
68912;SHT31;55953;51.650;-0.522;2023-04-29T14:55:08;21.65;44.74
68912;SHT31;55953;51.650;-0.522;2023-04-29T14:57:36;21.79;44.79
68912;SHT31;55953;51.650;-0.522;2023-04-29T15:00:04;21.83;44.25
68912;SHT31;55953;51.650;-0.522;2023-04-29T15:02:34;21.88;43.26
68912;SHT31;55953;51.650;-0.522;2023-04-29T15:05:02;21.85;43.59
68912;SHT31;55953;51.650;-0.522;2023-04-29T15:07:31;21.92;44.37
68912;SHT31;55953;51.650;-0.522;2023-04-29T15:10:01;21.90;42.96
68912;SHT31;55953;51.650;-0.522;2023-04-29T15:12:34;21.70;43.28
68912;SHT31;55953;51.650;-0.522;2023-04-29T15:15:02;21.72;44.29
68912;SHT31;55953;51.650;-0.522;2023-04-29T15:17:31;21.75;44.08
68912;SHT31;55953;51.650;-0.522;2023-04-29T15:19:59;21.74;44.42
68912;SHT31;55953;51.650;-0.522;2023-04-29T15:22:26;21.75;44.14
68912;SHT31;55953;51.650;-0.522;2023-04-29T15:24:54;21.68;43.31
68912;SHT31;55953;51.650;-0.522;2023-04-29T15:27:22;21.56;43.57
68912;SHT31;55953;51.650;-0.522;2023-04-29T15:29:50;21.43;43.78
68912;SHT31;55953;51.650;-0.522;2023-04-29T15:32:21;21.37;44.62
68912;SHT31;55953;51.650;-0.522;2023-04-29T15:34:51;21.38;44.36
68912;SHT31;55953;51.650;-0.522;2023-04-29T15:37:19;21.34;44.69
68912;SHT31;55953;51.650;-0.522;2023-04-29T15:39:49;21.32;44.71
68912;SHT31;55953;51.650;-0.522;2023-04-29T15:42:17;21.33;44.91
68912;SHT31;55953;51.650;-0.522;2023-04-29T15:44:45;21.38;44.66
68912;SHT31;55953;51.650;-0.522;2023-04-29T15:47:13;21.37;44.58
68912;SHT31;55953;51.650;-0.522;2023-04-29T15:49:41;21.35;44.34
68912;SHT31;55953;51.650;-0.522;2023-04-29T15:52:09;21.37;44.03
68912;SHT31;55953;51.650;-0.522;2023-04-29T15:54:37;21.37;44.19
68912;SHT31;55953;51.650;-0.522;2023-04-29T15:57:05;21.39;43.51
68912;SHT31;55953;51.650;-0.522;2023-04-29T15:59:33;21.54;43.39
68912;SHT31;55953;51.650;-0.522;2023-04-29T16:02:00;21.69;44.11
68912;SHT31;55953;51.650;-0.522;2023-04-29T16:04:30;21.75;43.94
68912;SHT31;55953;51.650;-0.522;2023-04-29T16:06:58;21.88;43.69
68912;SHT31;55953;51.650;-0.522;2023-04-29T16:09:27;21.97;42.79
68912;SHT31;55953;51.650;-0.522;2023-04-29T16:11:55;22.01;42.69
68912;SHT31;55953;51.650;-0.522;2023-04-29T16:14:24;22.01;43.28
68912;SHT31;55953;51.650;-0.522;2023-04-29T16:16:52;21.99;43.83